sensor_id;sensor_type;location;lat;lon;timestamp;temperature;humidity
26595;DHT22;14238;49.496;8.154;2022-10-16T00:00:31;15.50;99.90
26595;DHT22;14238;49.496;8.154;2022-10-16T00:02:57;15.50;99.90
26595;DHT22;14238;49.496;8.154;2022-10-16T00:05:23;15.40;99.90
26595;DHT22;14238;49.496;8.154;2022-10-16T00:07:49;15.40;99.90
26595;DHT22;14238;49.496;8.154;2022-10-16T00:10:15;15.40;99.90
26595;DHT22;14238;49.496;8.154;2022-10-16T00:12:40;15.40;99.90
26595;DHT22;14238;49.496;8.154;2022-10-16T00:15:06;15.40;99.90
26595;DHT22;14238;49.496;8.154;2022-10-16T00:17:32;15.40;99.90
26595;DHT22;14238;49.496;8.154;2022-10-16T00:19:57;15.40;99.90
26595;DHT22;14238;49.496;8.154;2022-10-16T00:22:23;15.40;99.90
26595;DHT22;14238;49.496;8.154;2022-10-16T00:24:49;15.40;99.90
26595;DHT22;14238;49.496;8.154;2022-10-16T00:27:14;15.40;99.90
26595;DHT22;14238;49.496;8.154;2022-10-16T00:29:40;15.30;99.90
26595;DHT22;14238;49.496;8.154;2022-10-16T00:32:05;15.30;99.90
26595;DHT22;14238;49.496;8.154;2022-10-16T00:34:31;15.20;99.90
26595;DHT22;14238;49.496;8.154;2022-10-16T00:36:57;15.20;99.90
26595;DHT22;14238;49.496;8.154;2022-10-16T00:39:22;15.20;99.90
26595;DHT22;14238;49.496;8.154;2022-10-16T00:41:48;15.20;99.90
26595;DHT22;14238;49.496;8.154;2022-10-16T00:44:52;15.20;99.90
26595;DHT22;14238;49.496;8.154;2022-10-16T00:50:32;15.20;99.90
26595;DHT22;14238;49.496;8.154;2022-10-16T00:53:00;15.20;99.90
26595;DHT22;14238;49.496;8.154;2022-10-16T00:55:26;15.20;99.90
26595;DHT22;14238;49.496;8.154;2022-10-16T00:57:53;15.10;99.90
26595;DHT22;14238;49.496;8.154;2022-10-16T01:00:22;15.20;99.90
26595;DHT22;14238;49.496;8.154;2022-10-16T01:06:37;15.30;99.90
26595;DHT22;14238;49.496;8.154;2022-10-16T01:08:49;15.20;99.90
26595;DHT22;14238;49.496;8.154;2022-10-16T01:14:37;15.20;99.90
26595;DHT22;14238;49.496;8.154;2022-10-16T01:17:18;15.20;99.90
26595;DHT22;14238;49.496;8.154;2022-10-16T01:20:00;15.20;99.90
26595;DHT22;14238;49.496;8.154;2022-10-16T01:25:31;15.20;99.90
26595;DHT22;14238;49.496;8.154;2022-10-16T01:28:01;15.20;99.90
26595;DHT22;14238;49.496;8.154;2022-10-16T01:30:31;15.20;99.90
26595;DHT22;14238;49.496;8.154;2022-10-16T01:33:02;15.20;99.90
26595;DHT22;14238;49.496;8.154;2022-10-16T01:35:41;15.20;99.90
26595;DHT22;14238;49.496;8.154;2022-10-16T01:38:15;15.10;99.90
26595;DHT22;14238;49.496;8.154;2022-10-16T01:40:44;15.20;99.90
26595;DHT22;14238;49.496;8.154;2022-10-16T01:43:24;15.10;99.90
26595;DHT22;14238;49.496;8.154;2022-10-16T01:45:51;15.10;99.90
26595;DHT22;14238;49.496;8.154;2022-10-16T01:48:19;15.10;99.90
26595;DHT22;14238;49.496;8.154;2022-10-16T01:51:00;15.10;99.90
26595;DHT22;14238;49.496;8.154;2022-10-16T01:53:28;15.10;99.90
26595;DHT22;14238;49.496;8.154;2022-10-16T01:55:55;15.10;99.90
26595;DHT22;14238;49.496;8.154;2022-10-16T01:58:24;15.10;99.90
26595;DHT22;14238;49.496;8.154;2022-10-16T02:00:52;15.10;99.90
26595;DHT22;14238;49.496;8.154;2022-10-16T02:03:19;15.00;99.90
26595;DHT22;14238;49.496;8.154;2022-10-16T02:05:53;15.00;99.90
26595;DHT22;14238;49.496;8.154;2022-10-16T02:08:23;15.10;99.90
26595;DHT22;14238;49.496;8.154;2022-10-16T02:10:49;15.00;99.90
26595;DHT22;14238;49.496;8.154;2022-10-16T02:13:25;15.10;99.90
26595;DHT22;14238;49.496;8.154;2022-10-16T02:15:51;15.10;99.90
26595;DHT22;14238;49.496;8.154;2022-10-16T02:18:16;15.10;99.90
26595;DHT22;14238;49.496;8.154;2022-10-16T02:20:51;15.10;99.90
26595;DHT22;14238;49.496;8.154;2022-10-16T02:23:32;15.10;99.90
26595;DHT22;14238;49.496;8.154;2022-10-16T02:26:04;15.10;99.90
26595;DHT22;14238;49.496;8.154;2022-10-16T02:28:54;15.10;99.90
26595;DHT22;14238;49.496;8.154;2022-10-16T02:31:27;15.10;99.90
26595;DHT22;14238;49.496;8.154;2022-10-16T02:33:55;15.10;99.90
26595;DHT22;14238;49.496;8.154;2022-10-16T02:36:23;15.10;99.90
26595;DHT22;14238;49.496;8.154;2022-10-16T02:38:49;15.10;99.90
26595;DHT22;14238;49.496;8.154;2022-10-16T02:41:15;15.10;99.90
26595;DHT22;14238;49.496;8.154;2022-10-16T02:43:40;15.10;99.90
26595;DHT22;14238;49.496;8.154;2022-10-16T02:46:07;15.10;99.90
26595;DHT22;14238;49.496;8.154;2022-10-16T02:48:33;15.10;99.90
26595;DHT22;14238;49.496;8.154;2022-10-16T02:50:58;15.10;99.90
26595;DHT22;14238;49.496;8.154;2022-10-16T02:53:24;15.10;99.90
26595;DHT22;14238;49.496;8.154;2022-10-16T02:55:49;15.10;99.90
26595;DHT22;14238;49.496;8.154;2022-10-16T02:58:15;15.00;99.90
26595;DHT22;14238;49.496;8.154;2022-10-16T03:00:41;15.00;99.90
26595;DHT22;14238;49.496;8.154;2022-10-16T03:03:07;15.00;99.90
26595;DHT22;14238;49.496;8.154;2022-10-16T03:05:32;15.00;99.90
26595;DHT22;14238;49.496;8.154;2022-10-16T03:07:58;15.00;99.90
26595;DHT22;14238;49.496;8.154;2022-10-16T03:10:26;15.00;99.90
26595;DHT22;14238;49.496;8.154;2022-10-16T03:12:52;15.00;99.90
26595;DHT22;14238;49.496;8.154;2022-10-16T03:15:17;15.00;99.90
26595;DHT22;14238;49.496;8.154;2022-10-16T03:17:43;15.00;99.90
26595;DHT22;14238;49.496;8.154;2022-10-16T03:20:09;15.00;99.90
26595;DHT22;14238;49.496;8.154;2022-10-16T03:22:34;15.00;99.90
26595;DHT22;14238;49.496;8.154;2022-10-16T03:25:00;14.90;99.90
26595;DHT22;14238;49.496;8.154;2022-10-16T03:27:26;14.90;99.90
26595;DHT22;14238;49.496;8.154;2022-10-16T03:29:51;14.80;99.90
26595;DHT22;14238;49.496;8.154;2022-10-16T03:32:17;14.80;99.90
26595;DHT22;14238;49.496;8.154;2022-10-16T03:34:43;14.80;99.90
26595;DHT22;14238;49.496;8.154;2022-10-16T03:37:09;14.70;99.90
26595;DHT22;14238;49.496;8.154;2022-10-16T03:39:35;14.70;99.90
26595;DHT22;14238;49.496;8.154;2022-10-16T03:42:00;14.70;99.90
26595;DHT22;14238;49.496;8.154;2022-10-16T03:44:26;14.70;99.90
26595;DHT22;14238;49.496;8.154;2022-10-16T03:46:51;14.70;99.90
26595;DHT22;14238;49.496;8.154;2022-10-16T03:49:17;14.70;99.90
26595;DHT22;14238;49.496;8.154;2022-10-16T03:51:42;14.70;99.90
26595;DHT22;14238;49.496;8.154;2022-10-16T03:54:09;14.70;99.90
26595;DHT22;14238;49.496;8.154;2022-10-16T03:56:34;14.70;99.90
26595;DHT22;14238;49.496;8.154;2022-10-16T03:59:00;14.70;99.90
26595;DHT22;14238;49.496;8.154;2022-10-16T04:01:25;14.70;99.90
26595;DHT22;14238;49.496;8.154;2022-10-16T04:03:51;14.70;99.90
26595;DHT22;14238;49.496;8.154;2022-10-16T04:06:16;14.70;99.90
26595;DHT22;14238;49.496;8.154;2022-10-16T04:08:43;14.70;99.90
26595;DHT22;14238;49.496;8.154;2022-10-16T04:11:09;14.70;99.90
26595;DHT22;14238;49.496;8.154;2022-10-16T04:13:34;14.70;99.90
26595;DHT22;14238;49.496;8.154;2022-10-16T04:16:00;14.70;99.90
26595;DHT22;14238;49.496;8.154;2022-10-16T04:18:26;14.70;99.90
26595;DHT22;14238;49.496;8.154;2022-10-16T04:20:53;14.70;99.90
26595;DHT22;14238;49.496;8.154;2022-10-16T04:23:18;14.70;99.90
26595;DHT22;14238;49.496;8.154;2022-10-16T04:25:44;14.60;99.90
26595;DHT22;14238;49.496;8.154;2022-10-16T04:28:09;14.60;99.90
26595;DHT22;14238;49.496;8.154;2022-10-16T04:30:37;14.60;99.90
26595;DHT22;14238;49.496;8.154;2022-10-16T04:33:02;14.60;99.90
26595;DHT22;14238;49.496;8.154;2022-10-16T04:35:28;14.50;99.90
26595;DHT22;14238;49.496;8.154;2022-10-16T04:37:53;14.50;99.90
26595;DHT22;14238;49.496;8.154;2022-10-16T04:40:19;14.50;99.90
26595;DHT22;14238;49.496;8.154;2022-10-16T04:42:44;14.50;99.90
26595;DHT22;14238;49.496;8.154;2022-10-16T04:45:10;14.40;99.90
26595;DHT22;14238;49.496;8.154;2022-10-16T04:47:36;14.40;99.90
26595;DHT22;14238;49.496;8.154;2022-10-16T04:50:02;14.40;99.90
26595;DHT22;14238;49.496;8.154;2022-10-16T04:52:28;14.40;99.90
26595;DHT22;14238;49.496;8.154;2022-10-16T04:54:53;14.40;99.90
26595;DHT22;14238;49.496;8.154;2022-10-16T04:57:19;14.30;99.90
26595;DHT22;14238;49.496;8.154;2022-10-16T04:59:45;14.30;99.90
26595;DHT22;14238;49.496;8.154;2022-10-16T05:02:10;14.30;99.90
26595;DHT22;14238;49.496;8.154;2022-10-16T05:04:36;14.40;99.90
26595;DHT22;14238;49.496;8.154;2022-10-16T05:07:01;14.40;99.90
26595;DHT22;14238;49.496;8.154;2022-10-16T05:09:27;14.30;99.90
26595;DHT22;14238;49.496;8.154;2022-10-16T05:11:52;14.30;99.90
26595;DHT22;14238;49.496;8.154;2022-10-16T05:14:18;14.30;99.90
26595;DHT22;14238;49.496;8.154;2022-10-16T05:16:44;14.40;99.90
26595;DHT22;14238;49.496;8.154;2022-10-16T05:19:09;14.40;99.90
26595;DHT22;14238;49.496;8.154;2022-10-16T05:21:35;14.40;99.90
26595;DHT22;14238;49.496;8.154;2022-10-16T05:24:01;14.50;99.90
26595;DHT22;14238;49.496;8.154;2022-10-16T05:26:26;14.50;99.90
26595;DHT22;14238;49.496;8.154;2022-10-16T05:28:52;14.40;99.90
26595;DHT22;14238;49.496;8.154;2022-10-16T05:31:17;14.40;99.90
26595;DHT22;14238;49.496;8.154;2022-10-16T05:33:43;14.40;99.90
26595;DHT22;14238;49.496;8.154;2022-10-16T05:36:09;14.30;99.90
26595;DHT22;14238;49.496;8.154;2022-10-16T05:38:36;14.40;99.90
26595;DHT22;14238;49.496;8.154;2022-10-16T05:41:03;14.30;99.90
26595;DHT22;14238;49.496;8.154;2022-10-16T05:43:29;14.30;99.90
26595;DHT22;14238;49.496;8.154;2022-10-16T05:46:03;14.40;99.90
26595;DHT22;14238;49.496;8.154;2022-10-16T05:48:29;14.30;99.90
26595;DHT22;14238;49.496;8.154;2022-10-16T05:50:58;14.40;99.90
26595;DHT22;14238;49.496;8.154;2022-10-16T05:53:24;14.30;99.90
26595;DHT22;14238;49.496;8.154;2022-10-16T05:55:54;14.40;99.90
26595;DHT22;14238;49.496;8.154;2022-10-16T05:58:21;14.40;99.90
26595;DHT22;14238;49.496;8.154;2022-10-16T06:01:01;14.30;99.90
26595;DHT22;14238;49.496;8.154;2022-10-16T06:03:29;14.40;99.90
26595;DHT22;14238;49.496;8.154;2022-10-16T06:05:54;14.30;99.90
26595;DHT22;14238;49.496;8.154;2022-10-16T06:08:21;14.40;99.90
26595;DHT22;14238;49.496;8.154;2022-10-16T06:10:49;14.40;99.90
26595;DHT22;14238;49.496;8.154;2022-10-16T06:13:15;14.40;99.90
26595;DHT22;14238;49.496;8.154;2022-10-16T06:15:41;14.40;99.90
26595;DHT22;14238;49.496;8.154;2022-10-16T06:18:08;14.50;99.90
26595;DHT22;14238;49.496;8.154;2022-10-16T06:20:34;14.50;99.90
26595;DHT22;14238;49.496;8.154;2022-10-16T06:23:00;14.50;99.90
26595;DHT22;14238;49.496;8.154;2022-10-16T06:25:26;14.50;99.90
26595;DHT22;14238;49.496;8.154;2022-10-16T06:27:51;14.50;99.90
26595;DHT22;14238;49.496;8.154;2022-10-16T06:30:17;14.60;99.90
26595;DHT22;14238;49.496;8.154;2022-10-16T06:32:42;14.50;99.90
26595;DHT22;14238;49.496;8.154;2022-10-16T06:35:08;14.50;99.90
26595;DHT22;14238;49.496;8.154;2022-10-16T06:37:33;14.50;99.90
26595;DHT22;14238;49.496;8.154;2022-10-16T06:39:59;14.60;99.90
26595;DHT22;14238;49.496;8.154;2022-10-16T06:42:25;14.60;99.90
26595;DHT22;14238;49.496;8.154;2022-10-16T06:44:51;14.60;99.90
26595;DHT22;14238;49.496;8.154;2022-10-16T06:47:16;14.70;99.90
26595;DHT22;14238;49.496;8.154;2022-10-16T06:49:42;14.60;99.90
26595;DHT22;14238;49.496;8.154;2022-10-16T06:52:07;14.60;99.90
26595;DHT22;14238;49.496;8.154;2022-10-16T06:54:33;14.70;99.90
26595;DHT22;14238;49.496;8.154;2022-10-16T06:56:58;14.70;99.90
26595;DHT22;14238;49.496;8.154;2022-10-16T06:59:25;14.70;99.90
26595;DHT22;14238;49.496;8.154;2022-10-16T07:01:51;14.70;99.90
26595;DHT22;14238;49.496;8.154;2022-10-16T07:04:16;14.80;99.90
26595;DHT22;14238;49.496;8.154;2022-10-16T07:06:42;14.90;99.90
26595;DHT22;14238;49.496;8.154;2022-10-16T07:09:10;14.90;99.90
26595;DHT22;14238;49.496;8.154;2022-10-16T07:11:37;15.00;99.90
26595;DHT22;14238;49.496;8.154;2022-10-16T07:14:04;15.00;99.90
26595;DHT22;14238;49.496;8.154;2022-10-16T07:16:32;15.10;99.90
26595;DHT22;14238;49.496;8.154;2022-10-16T07:18:59;15.10;99.90
26595;DHT22;14238;49.496;8.154;2022-10-16T07:21:27;15.20;99.90
26595;DHT22;14238;49.496;8.154;2022-10-16T07:23:58;15.20;99.90
26595;DHT22;14238;49.496;8.154;2022-10-16T07:26:26;15.30;99.90
26595;DHT22;14238;49.496;8.154;2022-10-16T07:28:51;15.30;99.90
26595;DHT22;14238;49.496;8.154;2022-10-16T07:31:19;15.40;99.90
26595;DHT22;14238;49.496;8.154;2022-10-16T07:33:46;15.40;99.90
26595;DHT22;14238;49.496;8.154;2022-10-16T07:36:14;15.30;99.90
26595;DHT22;14238;49.496;8.154;2022-10-16T07:38:40;15.30;99.90
26595;DHT22;14238;49.496;8.154;2022-10-16T07:41:07;15.30;99.90
26595;DHT22;14238;49.496;8.154;2022-10-16T07:43:33;15.40;99.90
26595;DHT22;14238;49.496;8.154;2022-10-16T07:45:59;15.40;99.90
26595;DHT22;14238;49.496;8.154;2022-10-16T07:48:30;15.30;99.90
26595;DHT22;14238;49.496;8.154;2022-10-16T07:50:59;15.40;99.90
26595;DHT22;14238;49.496;8.154;2022-10-16T07:53:25;15.40;99.90
26595;DHT22;14238;49.496;8.154;2022-10-16T07:55:50;15.40;99.90
26595;DHT22;14238;49.496;8.154;2022-10-16T07:58:16;15.30;99.90
26595;DHT22;14238;49.496;8.154;2022-10-16T08:00:41;15.30;99.90
26595;DHT22;14238;49.496;8.154;2022-10-16T08:03:08;15.30;99.90
26595;DHT22;14238;49.496;8.154;2022-10-16T08:05:33;15.30;99.90
26595;DHT22;14238;49.496;8.154;2022-10-16T08:08:00;15.30;99.90
26595;DHT22;14238;49.496;8.154;2022-10-16T08:10:27;15.30;99.90
26595;DHT22;14238;49.496;8.154;2022-10-16T08:12:53;15.30;99.90
26595;DHT22;14238;49.496;8.154;2022-10-16T08:15:19;15.30;99.90
26595;DHT22;14238;49.496;8.154;2022-10-16T08:17:45;15.30;99.90
26595;DHT22;14238;49.496;8.154;2022-10-16T08:20:19;15.30;99.90
26595;DHT22;14238;49.496;8.154;2022-10-16T08:22:44;15.20;99.90
26595;DHT22;14238;49.496;8.154;2022-10-16T08:25:10;15.40;99.90
26595;DHT22;14238;49.496;8.154;2022-10-16T08:27:35;15.50;99.90
26595;DHT22;14238;49.496;8.154;2022-10-16T08:30:01;15.60;99.90
26595;DHT22;14238;49.496;8.154;2022-10-16T08:32:26;15.60;99.90
26595;DHT22;14238;49.496;8.154;2022-10-16T08:34:52;15.70;99.90
26595;DHT22;14238;49.496;8.154;2022-10-16T08:37:17;15.70;99.90
26595;DHT22;14238;49.496;8.154;2022-10-16T08:39:43;15.80;99.90
26595;DHT22;14238;49.496;8.154;2022-10-16T08:42:28;16.00;99.90
26595;DHT22;14238;49.496;8.154;2022-10-16T08:47:45;16.40;99.90
26595;DHT22;14238;49.496;8.154;2022-10-16T08:50:21;16.70;99.90
26595;DHT22;14238;49.496;8.154;2022-10-16T08:52:47;16.90;99.90
26595;DHT22;14238;49.496;8.154;2022-10-16T08:55:37;17.00;99.90
26595;DHT22;14238;49.496;8.154;2022-10-16T08:58:14;17.30;99.90
26595;DHT22;14238;49.496;8.154;2022-10-16T09:00:40;17.50;99.90
26595;DHT22;14238;49.496;8.154;2022-10-16T09:03:32;17.60;99.90
26595;DHT22;14238;49.496;8.154;2022-10-16T09:06:28;17.70;99.90
26595;DHT22;14238;49.496;8.154;2022-10-16T09:08:59;18.00;99.90
26595;DHT22;14238;49.496;8.154;2022-10-16T09:14:46;18.60;99.90
26595;DHT22;14238;49.496;8.154;2022-10-16T09:17:50;18.80;99.90
26595;DHT22;14238;49.496;8.154;2022-10-16T09:20:26;19.00;99.90
26595;DHT22;14238;49.496;8.154;2022-10-16T09:23:12;19.10;99.90
26595;DHT22;14238;49.496;8.154;2022-10-16T09:25:39;19.20;99.90
26595;DHT22;14238;49.496;8.154;2022-10-16T09:28:08;19.20;99.90
26595;DHT22;14238;49.496;8.154;2022-10-16T09:30:34;18.80;99.90
26595;DHT22;14238;49.496;8.154;2022-10-16T09:33:00;18.50;99.90
26595;DHT22;14238;49.496;8.154;2022-10-16T09:35:45;18.40;99.90
26595;DHT22;14238;49.496;8.154;2022-10-16T09:38:41;18.30;99.90
26595;DHT22;14238;49.496;8.154;2022-10-16T09:41:21;18.50;99.90
26595;DHT22;14238;49.496;8.154;2022-10-16T09:44:01;19.30;99.90
26595;DHT22;14238;49.496;8.154;2022-10-16T09:46:33;20.00;99.90
26595;DHT22;14238;49.496;8.154;2022-10-16T09:49:01;20.10;99.90
26595;DHT22;14238;49.496;8.154;2022-10-16T09:51:33;20.50;99.90
26595;DHT22;14238;49.496;8.154;2022-10-16T09:54:23;20.70;99.90
26595;DHT22;14238;49.496;8.154;2022-10-16T09:56:48;20.90;99.90
26595;DHT22;14238;49.496;8.154;2022-10-16T09:59:21;21.10;99.90
26595;DHT22;14238;49.496;8.154;2022-10-16T10:01:51;21.60;99.90
26595;DHT22;14238;49.496;8.154;2022-10-16T10:04:18;22.60;99.90
26595;DHT22;14238;49.496;8.154;2022-10-16T10:06:55;23.50;99.90
26595;DHT22;14238;49.496;8.154;2022-10-16T10:09:22;23.40;99.90
26595;DHT22;14238;49.496;8.154;2022-10-16T10:11:59;22.80;99.90
26595;DHT22;14238;49.496;8.154;2022-10-16T10:14:45;22.30;99.90
26595;DHT22;14238;49.496;8.154;2022-10-16T10:17:16;21.70;99.90
26595;DHT22;14238;49.496;8.154;2022-10-16T10:20:11;21.20;99.90
26595;DHT22;14238;49.496;8.154;2022-10-16T10:22:43;20.50;99.90
26595;DHT22;14238;49.496;8.154;2022-10-16T10:27:50;20.00;99.90
26595;DHT22;14238;49.496;8.154;2022-10-16T10:33:15;19.80;99.90
26595;DHT22;14238;49.496;8.154;2022-10-16T10:39:27;20.60;99.90
26595;DHT22;14238;49.496;8.154;2022-10-16T10:50:57;21.60;99.90
26595;DHT22;14238;49.496;8.154;2022-10-16T10:56:44;23.20;99.90
26595;DHT22;14238;49.496;8.154;2022-10-16T11:05:03;23.30;99.90
26595;DHT22;14238;49.496;8.154;2022-10-16T11:07:47;22.60;99.90
26595;DHT22;14238;49.496;8.154;2022-10-16T11:10:27;23.00;99.90
26595;DHT22;14238;49.496;8.154;2022-10-16T11:13:16;23.00;99.90
26595;DHT22;14238;49.496;8.154;2022-10-16T11:15:45;23.10;99.90
26595;DHT22;14238;49.496;8.154;2022-10-16T11:18:21;23.20;99.90
26595;DHT22;14238;49.496;8.154;2022-10-16T11:20:59;24.30;99.90
26595;DHT22;14238;49.496;8.154;2022-10-16T11:23:31;25.40;99.90
26595;DHT22;14238;49.496;8.154;2022-10-16T11:26:04;25.30;99.90
26595;DHT22;14238;49.496;8.154;2022-10-16T11:31:03;23.80;99.90
26595;DHT22;14238;49.496;8.154;2022-10-16T11:33:40;23.80;99.90
26595;DHT22;14238;49.496;8.154;2022-10-16T11:36:55;24.40;99.90
26595;DHT22;14238;49.496;8.154;2022-10-16T11:39:46;25.10;99.90
26595;DHT22;14238;49.496;8.154;2022-10-16T11:42:01;24.60;99.90
26595;DHT22;14238;49.496;8.154;2022-10-16T11:44:44;24.60;99.90
26595;DHT22;14238;49.496;8.154;2022-10-16T11:47:30;25.00;99.90
26595;DHT22;14238;49.496;8.154;2022-10-16T11:50:02;24.00;99.90
26595;DHT22;14238;49.496;8.154;2022-10-16T11:52:55;22.90;99.90
26595;DHT22;14238;49.496;8.154;2022-10-16T11:55:29;22.40;99.90
26595;DHT22;14238;49.496;8.154;2022-10-16T11:58:12;22.30;99.90
26595;DHT22;14238;49.496;8.154;2022-10-16T12:03:31;21.80;99.90
26595;DHT22;14238;49.496;8.154;2022-10-16T12:06:13;21.50;99.90
26595;DHT22;14238;49.496;8.154;2022-10-16T12:08:40;21.30;99.90
26595;DHT22;14238;49.496;8.154;2022-10-16T12:11:30;21.20;99.90
26595;DHT22;14238;49.496;8.154;2022-10-16T12:16:58;21.10;99.90
26595;DHT22;14238;49.496;8.154;2022-10-16T12:19:27;21.00;99.90
26595;DHT22;14238;49.496;8.154;2022-10-16T12:22:01;21.00;99.90
26595;DHT22;14238;49.496;8.154;2022-10-16T12:24:31;21.00;99.90
26595;DHT22;14238;49.496;8.154;2022-10-16T12:26:57;21.00;99.90
26595;DHT22;14238;49.496;8.154;2022-10-16T12:32:00;21.40;99.90
26595;DHT22;14238;49.496;8.154;2022-10-16T12:34:40;22.20;99.90
26595;DHT22;14238;49.496;8.154;2022-10-16T12:37:10;23.40;99.90
26595;DHT22;14238;49.496;8.154;2022-10-16T12:39:36;23.30;99.90
26595;DHT22;14238;49.496;8.154;2022-10-16T12:42:05;22.80;99.90
26595;DHT22;14238;49.496;8.154;2022-10-16T12:44:35;22.30;99.90
26595;DHT22;14238;49.496;8.154;2022-10-16T12:47:02;22.00;99.90
26595;DHT22;14238;49.496;8.154;2022-10-16T12:51:54;21.80;99.90
26595;DHT22;14238;49.496;8.154;2022-10-16T12:54:38;21.60;99.90
26595;DHT22;14238;49.496;8.154;2022-10-16T13:03:27;21.10;99.90
26595;DHT22;14238;49.496;8.154;2022-10-16T13:06:22;20.90;99.90
26595;DHT22;14238;49.496;8.154;2022-10-16T13:12:07;20.70;99.90
26595;DHT22;14238;49.496;8.154;2022-10-16T13:25:45;20.40;99.90
26595;DHT22;14238;49.496;8.154;2022-10-16T13:28:13;20.40;99.90
26595;DHT22;14238;49.496;8.154;2022-10-16T13:30:43;20.40;99.90
26595;DHT22;14238;49.496;8.154;2022-10-16T13:33:14;20.40;99.90
26595;DHT22;14238;49.496;8.154;2022-10-16T13:35:54;20.40;99.90
26595;DHT22;14238;49.496;8.154;2022-10-16T13:38:23;20.20;99.90
26595;DHT22;14238;49.496;8.154;2022-10-16T13:40:56;20.30;99.90
26595;DHT22;14238;49.496;8.154;2022-10-16T13:43:27;20.30;99.90
26595;DHT22;14238;49.496;8.154;2022-10-16T13:46:20;20.20;99.90
26595;DHT22;14238;49.496;8.154;2022-10-16T13:48:57;20.00;99.90
26595;DHT22;14238;49.496;8.154;2022-10-16T13:51:22;19.90;99.90
26595;DHT22;14238;49.496;8.154;2022-10-16T13:53:48;19.90;99.90
26595;DHT22;14238;49.496;8.154;2022-10-16T13:56:17;19.90;99.90
26595;DHT22;14238;49.496;8.154;2022-10-16T13:58:43;19.90;99.90
26595;DHT22;14238;49.496;8.154;2022-10-16T14:01:42;19.80;99.90
26595;DHT22;14238;49.496;8.154;2022-10-16T14:04:10;19.90;99.90
26595;DHT22;14238;49.496;8.154;2022-10-16T14:06:41;19.90;99.90
26595;DHT22;14238;49.496;8.154;2022-10-16T14:09:26;19.80;99.90
26595;DHT22;14238;49.496;8.154;2022-10-16T14:11:59;19.90;99.90
26595;DHT22;14238;49.496;8.154;2022-10-16T14:14:27;19.90;99.90
26595;DHT22;14238;49.496;8.154;2022-10-16T14:16:56;19.80;99.90
26595;DHT22;14238;49.496;8.154;2022-10-16T14:19:25;19.70;99.90
26595;DHT22;14238;49.496;8.154;2022-10-16T14:21:52;19.70;99.90
26595;DHT22;14238;49.496;8.154;2022-10-16T14:26:56;19.60;99.90
26595;DHT22;14238;49.496;8.154;2022-10-16T14:29:23;19.80;99.90
26595;DHT22;14238;49.496;8.154;2022-10-16T14:32:04;19.70;99.90
26595;DHT22;14238;49.496;8.154;2022-10-16T14:34:31;19.70;99.90
26595;DHT22;14238;49.496;8.154;2022-10-16T14:39:33;19.80;99.90
26595;DHT22;14238;49.496;8.154;2022-10-16T14:41:59;19.80;99.90
26595;DHT22;14238;49.496;8.154;2022-10-16T14:44:29;19.90;99.90
26595;DHT22;14238;49.496;8.154;2022-10-16T14:46:56;19.90;99.90
26595;DHT22;14238;49.496;8.154;2022-10-16T14:49:23;20.00;99.90
26595;DHT22;14238;49.496;8.154;2022-10-16T14:51:49;20.00;99.90
26595;DHT22;14238;49.496;8.154;2022-10-16T14:54:16;20.10;99.90
26595;DHT22;14238;49.496;8.154;2022-10-16T14:56:54;20.10;99.90
26595;DHT22;14238;49.496;8.154;2022-10-16T14:59:39;20.20;99.90
26595;DHT22;14238;49.496;8.154;2022-10-16T15:02:22;20.30;99.90
26595;DHT22;14238;49.496;8.154;2022-10-16T15:04:48;20.60;99.90
26595;DHT22;14238;49.496;8.154;2022-10-16T15:07:14;20.60;99.90
26595;DHT22;14238;49.496;8.154;2022-10-16T15:09:39;20.50;99.90
26595;DHT22;14238;49.496;8.154;2022-10-16T15:12:05;20.50;99.90
26595;DHT22;14238;49.496;8.154;2022-10-16T15:14:31;20.50;99.90
26595;DHT22;14238;49.496;8.154;2022-10-16T15:16:57;20.40;99.90
26595;DHT22;14238;49.496;8.154;2022-10-16T15:19:22;20.40;99.90
26595;DHT22;14238;49.496;8.154;2022-10-16T15:21:48;20.30;99.90
26595;DHT22;14238;49.496;8.154;2022-10-16T15:24:14;20.10;99.90
26595;DHT22;14238;49.496;8.154;2022-10-16T15:26:40;20.10;99.90
26595;DHT22;14238;49.496;8.154;2022-10-16T15:29:06;20.00;99.90
26595;DHT22;14238;49.496;8.154;2022-10-16T15:31:32;19.90;99.90
26595;DHT22;14238;49.496;8.154;2022-10-16T15:33:58;19.80;99.90
26595;DHT22;14238;49.496;8.154;2022-10-16T15:36:32;19.80;99.90
26595;DHT22;14238;49.496;8.154;2022-10-16T15:38:59;19.70;99.90
26595;DHT22;14238;49.496;8.154;2022-10-16T15:41:25;19.70;99.90
26595;DHT22;14238;49.496;8.154;2022-10-16T15:43:51;19.60;99.90
26595;DHT22;14238;49.496;8.154;2022-10-16T15:46:22;19.40;99.90
26595;DHT22;14238;49.496;8.154;2022-10-16T15:48:48;19.40;99.90
26595;DHT22;14238;49.496;8.154;2022-10-16T15:51:15;19.30;99.90
26595;DHT22;14238;49.496;8.154;2022-10-16T15:53:40;19.20;99.90
26595;DHT22;14238;49.496;8.154;2022-10-16T15:56:07;19.00;99.90
26595;DHT22;14238;49.496;8.154;2022-10-16T15:58:33;19.00;99.90
26595;DHT22;14238;49.496;8.154;2022-10-16T16:01:00;18.80;99.90
26595;DHT22;14238;49.496;8.154;2022-10-16T16:03:27;18.60;99.90
26595;DHT22;14238;49.496;8.154;2022-10-16T16:05:54;18.50;99.90
26595;DHT22;14238;49.496;8.154;2022-10-16T16:08:19;18.50;99.90
26595;DHT22;14238;49.496;8.154;2022-10-16T16:10:45;18.40;99.90
26595;DHT22;14238;49.496;8.154;2022-10-16T16:13:11;18.20;99.90
26595;DHT22;14238;49.496;8.154;2022-10-16T16:15:40;18.10;99.90
26595;DHT22;14238;49.496;8.154;2022-10-16T16:18:06;18.10;99.90
26595;DHT22;14238;49.496;8.154;2022-10-16T16:20:31;18.00;99.90
26595;DHT22;14238;49.496;8.154;2022-10-16T16:22:57;18.00;99.90
26595;DHT22;14238;49.496;8.154;2022-10-16T16:25:23;17.80;99.90
26595;DHT22;14238;49.496;8.154;2022-10-16T16:27:48;17.80;99.90
26595;DHT22;14238;49.496;8.154;2022-10-16T16:30:14;17.60;99.90
26595;DHT22;14238;49.496;8.154;2022-10-16T16:32:40;17.50;99.90
26595;DHT22;14238;49.496;8.154;2022-10-16T16:35:06;17.40;99.90
26595;DHT22;14238;49.496;8.154;2022-10-16T16:37:32;17.20;99.90
26595;DHT22;14238;49.496;8.154;2022-10-16T16:39:57;17.20;99.90
26595;DHT22;14238;49.496;8.154;2022-10-16T16:42:26;17.20;99.90
26595;DHT22;14238;49.496;8.154;2022-10-16T16:44:53;17.10;99.90
26595;DHT22;14238;49.496;8.154;2022-10-16T16:47:18;17.00;99.90
26595;DHT22;14238;49.496;8.154;2022-10-16T16:49:44;17.00;99.90
26595;DHT22;14238;49.496;8.154;2022-10-16T16:52:11;16.80;99.90
26595;DHT22;14238;49.496;8.154;2022-10-16T16:54:37;16.70;99.90
26595;DHT22;14238;49.496;8.154;2022-10-16T16:57:03;16.70;99.90
26595;DHT22;14238;49.496;8.154;2022-10-16T16:59:29;16.50;99.90
26595;DHT22;14238;49.496;8.154;2022-10-16T17:01:58;16.40;99.90
26595;DHT22;14238;49.496;8.154;2022-10-16T17:04:24;16.30;99.90
26595;DHT22;14238;49.496;8.154;2022-10-16T17:06:49;16.30;99.90
26595;DHT22;14238;49.496;8.154;2022-10-16T17:09:15;16.30;99.90